sensor_id;sensor_type;location;lat;lon;timestamp;temperature;humidity
435;DHT22;204;48.942;9.256;2023-04-24T00:02:03;12.70;1.00
435;DHT22;204;48.942;9.256;2023-04-24T00:04:29;12.70;1.00
435;DHT22;204;48.942;9.256;2023-04-24T00:06:55;12.70;1.00
435;DHT22;204;48.942;9.256;2023-04-24T00:09:22;12.80;1.00
435;DHT22;204;48.942;9.256;2023-04-24T00:11:48;12.80;1.00
435;DHT22;204;48.942;9.256;2023-04-24T00:14:13;12.80;1.00
435;DHT22;204;48.942;9.256;2023-04-24T00:16:39;12.90;1.00
435;DHT22;204;48.942;9.256;2023-04-24T00:19:05;12.90;1.00
435;DHT22;204;48.942;9.256;2023-04-24T00:21:32;12.90;1.00
435;DHT22;204;48.942;9.256;2023-04-24T00:23:58;13.00;1.00
435;DHT22;204;48.942;9.256;2023-04-24T00:26:23;13.00;1.00
435;DHT22;204;48.942;9.256;2023-04-24T00:28:49;13.00;1.00
435;DHT22;204;48.942;9.256;2023-04-24T00:31:15;13.10;1.00
435;DHT22;204;48.942;9.256;2023-04-24T00:33:41;13.10;1.00
435;DHT22;204;48.942;9.256;2023-04-24T00:36:06;13.20;1.00
435;DHT22;204;48.942;9.256;2023-04-24T00:38:32;13.20;1.00
435;DHT22;204;48.942;9.256;2023-04-24T00:40:58;13.20;1.00
435;DHT22;204;48.942;9.256;2023-04-24T00:43:24;13.20;1.00
435;DHT22;204;48.942;9.256;2023-04-24T00:45:50;13.10;1.00
435;DHT22;204;48.942;9.256;2023-04-24T00:48:16;13.20;1.00
435;DHT22;204;48.942;9.256;2023-04-24T00:50:42;13.20;1.00
435;DHT22;204;48.942;9.256;2023-04-24T00:53:07;13.20;1.00
435;DHT22;204;48.942;9.256;2023-04-24T00:55:33;13.20;1.00
435;DHT22;204;48.942;9.256;2023-04-24T00:57:59;13.20;1.00
435;DHT22;204;48.942;9.256;2023-04-24T01:00:25;13.20;1.00
435;DHT22;204;48.942;9.256;2023-04-24T01:02:51;13.20;1.00
435;DHT22;204;48.942;9.256;2023-04-24T01:05:17;13.20;1.00
435;DHT22;204;48.942;9.256;2023-04-24T01:07:45;13.20;1.00
435;DHT22;204;48.942;9.256;2023-04-24T01:10:14;13.20;1.00
435;DHT22;204;48.942;9.256;2023-04-24T01:12:39;13.20;1.00
435;DHT22;204;48.942;9.256;2023-04-24T01:15:05;13.30;1.00
435;DHT22;204;48.942;9.256;2023-04-24T01:17:32;13.30;1.00
435;DHT22;204;48.942;9.256;2023-04-24T01:19:59;13.30;1.00
435;DHT22;204;48.942;9.256;2023-04-24T01:22:26;13.30;1.00
435;DHT22;204;48.942;9.256;2023-04-24T01:24:52;13.30;1.00
435;DHT22;204;48.942;9.256;2023-04-24T01:27:19;13.40;1.00
435;DHT22;204;48.942;9.256;2023-04-24T01:29:45;13.40;1.00
435;DHT22;204;48.942;9.256;2023-04-24T01:32:11;13.40;1.00
435;DHT22;204;48.942;9.256;2023-04-24T01:34:37;13.40;1.00
435;DHT22;204;48.942;9.256;2023-04-24T01:37:02;13.30;1.00
435;DHT22;204;48.942;9.256;2023-04-24T01:39:28;13.30;1.00
435;DHT22;204;48.942;9.256;2023-04-24T01:41:55;13.20;1.00
435;DHT22;204;48.942;9.256;2023-04-24T01:44:20;13.20;1.00
435;DHT22;204;48.942;9.256;2023-04-24T01:46:46;13.20;1.00
435;DHT22;204;48.942;9.256;2023-04-24T01:49:12;13.10;1.00
435;DHT22;204;48.942;9.256;2023-04-24T01:51:38;13.00;1.00
435;DHT22;204;48.942;9.256;2023-04-24T01:54:03;13.00;1.00
435;DHT22;204;48.942;9.256;2023-04-24T01:56:31;12.90;1.00
435;DHT22;204;48.942;9.256;2023-04-24T01:58:59;12.90;1.00
435;DHT22;204;48.942;9.256;2023-04-24T02:01:25;12.80;1.00
435;DHT22;204;48.942;9.256;2023-04-24T02:03:51;12.80;1.00
435;DHT22;204;48.942;9.256;2023-04-24T02:06:16;12.70;1.00
435;DHT22;204;48.942;9.256;2023-04-24T02:08:42;12.70;1.00
435;DHT22;204;48.942;9.256;2023-04-24T02:11:10;12.60;1.00
435;DHT22;204;48.942;9.256;2023-04-24T02:13:36;12.60;1.00
435;DHT22;204;48.942;9.256;2023-04-24T02:16:02;12.50;1.00
435;DHT22;204;48.942;9.256;2023-04-24T02:18:27;12.50;1.00
435;DHT22;204;48.942;9.256;2023-04-24T02:20:54;12.40;1.00
435;DHT22;204;48.942;9.256;2023-04-24T02:23:19;12.40;1.00
435;DHT22;204;48.942;9.256;2023-04-24T02:25:45;12.50;1.00
435;DHT22;204;48.942;9.256;2023-04-24T02:28:11;12.50;1.00
435;DHT22;204;48.942;9.256;2023-04-24T02:30:36;12.60;1.00
435;DHT22;204;48.942;9.256;2023-04-24T02:33:02;12.70;1.00
435;DHT22;204;48.942;9.256;2023-04-24T02:35:28;12.70;1.00
435;DHT22;204;48.942;9.256;2023-04-24T02:37:54;12.80;1.00
435;DHT22;204;48.942;9.256;2023-04-24T02:40:19;12.80;1.00
435;DHT22;204;48.942;9.256;2023-04-24T02:42:45;12.90;1.00
435;DHT22;204;48.942;9.256;2023-04-24T02:45:10;12.90;1.00
435;DHT22;204;48.942;9.256;2023-04-24T02:47:36;12.90;1.00
435;DHT22;204;48.942;9.256;2023-04-24T02:50:02;13.00;1.00
435;DHT22;204;48.942;9.256;2023-04-24T02:52:28;13.00;1.00
435;DHT22;204;48.942;9.256;2023-04-24T02:54:54;13.00;1.00
435;DHT22;204;48.942;9.256;2023-04-24T02:57:20;13.00;1.00
435;DHT22;204;48.942;9.256;2023-04-24T02:59:45;13.00;1.00
435;DHT22;204;48.942;9.256;2023-04-24T03:02:11;13.00;1.00
435;DHT22;204;48.942;9.256;2023-04-24T03:04:36;13.00;1.00
435;DHT22;204;48.942;9.256;2023-04-24T03:07:02;13.00;1.00
435;DHT22;204;48.942;9.256;2023-04-24T03:09:27;13.00;1.00
435;DHT22;204;48.942;9.256;2023-04-24T03:11:53;12.90;1.00
435;DHT22;204;48.942;9.256;2023-04-24T03:14:18;12.90;1.00
435;DHT22;204;48.942;9.256;2023-04-24T03:16:44;12.80;1.00
435;DHT22;204;48.942;9.256;2023-04-24T03:19:10;12.80;1.00
435;DHT22;204;48.942;9.256;2023-04-24T03:21:36;12.80;1.00
435;DHT22;204;48.942;9.256;2023-04-24T03:24:06;12.70;1.00
435;DHT22;204;48.942;9.256;2023-04-24T03:26:32;12.60;1.00
435;DHT22;204;48.942;9.256;2023-04-24T03:28:57;12.60;1.00
435;DHT22;204;48.942;9.256;2023-04-24T03:31:23;12.50;1.00
435;DHT22;204;48.942;9.256;2023-04-24T03:33:48;12.50;1.00
435;DHT22;204;48.942;9.256;2023-04-24T03:36:14;12.50;1.00
435;DHT22;204;48.942;9.256;2023-04-24T03:38:40;12.50;1.00
435;DHT22;204;48.942;9.256;2023-04-24T03:41:05;12.50;1.00
435;DHT22;204;48.942;9.256;2023-04-24T03:43:31;12.50;1.00
435;DHT22;204;48.942;9.256;2023-04-24T03:45:58;12.50;1.00
435;DHT22;204;48.942;9.256;2023-04-24T03:48:24;12.50;1.00
435;DHT22;204;48.942;9.256;2023-04-24T03:50:50;12.60;1.00
435;DHT22;204;48.942;9.256;2023-04-24T03:53:15;12.50;1.00
435;DHT22;204;48.942;9.256;2023-04-24T03:55:41;12.50;1.00
435;DHT22;204;48.942;9.256;2023-04-24T03:58:06;12.50;1.00
435;DHT22;204;48.942;9.256;2023-04-24T04:00:32;12.50;1.00
435;DHT22;204;48.942;9.256;2023-04-24T04:02:58;12.50;1.00
435;DHT22;204;48.942;9.256;2023-04-24T04:05:24;12.50;1.00
435;DHT22;204;48.942;9.256;2023-04-24T04:07:49;12.50;1.00
435;DHT22;204;48.942;9.256;2023-04-24T04:10:15;12.50;1.00
435;DHT22;204;48.942;9.256;2023-04-24T04:12:42;12.50;1.00
435;DHT22;204;48.942;9.256;2023-04-24T04:15:08;12.60;1.00
435;DHT22;204;48.942;9.256;2023-04-24T04:17:33;12.60;1.00
435;DHT22;204;48.942;9.256;2023-04-24T04:19:59;12.60;1.00
435;DHT22;204;48.942;9.256;2023-04-24T04:22:25;12.50;1.00
435;DHT22;204;48.942;9.256;2023-04-24T04:24:53;12.30;1.00
435;DHT22;204;48.942;9.256;2023-04-24T04:27:18;12.00;1.00
435;DHT22;204;48.942;9.256;2023-04-24T04:29:44;11.80;1.00
435;DHT22;204;48.942;9.256;2023-04-24T04:32:10;11.50;1.00
435;DHT22;204;48.942;9.256;2023-04-24T04:34:35;11.40;1.00
435;DHT22;204;48.942;9.256;2023-04-24T04:37:03;11.20;1.00
435;DHT22;204;48.942;9.256;2023-04-24T04:39:29;11.10;1.00
435;DHT22;204;48.942;9.256;2023-04-24T04:41:55;11.00;1.00
435;DHT22;204;48.942;9.256;2023-04-24T04:44:20;10.90;1.00
435;DHT22;204;48.942;9.256;2023-04-24T04:46:46;10.90;1.00
435;DHT22;204;48.942;9.256;2023-04-24T04:49:13;10.80;1.00
435;DHT22;204;48.942;9.256;2023-04-24T04:51:42;10.80;1.00
435;DHT22;204;48.942;9.256;2023-04-24T04:54:07;10.80;1.00
435;DHT22;204;48.942;9.256;2023-04-24T04:56:33;10.70;1.00
435;DHT22;204;48.942;9.256;2023-04-24T04:58:58;10.70;1.00
435;DHT22;204;48.942;9.256;2023-04-24T05:01:24;10.70;1.00
435;DHT22;204;48.942;9.256;2023-04-24T05:03:52;10.70;1.00
435;DHT22;204;48.942;9.256;2023-04-24T05:06:18;10.70;1.00
435;DHT22;204;48.942;9.256;2023-04-24T05:08:44;10.80;1.00
435;DHT22;204;48.942;9.256;2023-04-24T05:11:09;10.80;1.00
435;DHT22;204;48.942;9.256;2023-04-24T05:13:35;10.80;1.00
435;DHT22;204;48.942;9.256;2023-04-24T05:16:01;10.90;1.00
435;DHT22;204;48.942;9.256;2023-04-24T05:18:26;10.90;1.00
435;DHT22;204;48.942;9.256;2023-04-24T05:20:52;10.90;1.00
435;DHT22;204;48.942;9.256;2023-04-24T05:23:17;10.90;1.00
435;DHT22;204;48.942;9.256;2023-04-24T05:25:43;10.90;1.00
435;DHT22;204;48.942;9.256;2023-04-24T05:28:08;10.90;1.00
435;DHT22;204;48.942;9.256;2023-04-24T05:30:34;10.90;1.00
435;DHT22;204;48.942;9.256;2023-04-24T05:32:59;11.00;1.00
435;DHT22;204;48.942;9.256;2023-04-24T05:35:25;11.00;1.00
435;DHT22;204;48.942;9.256;2023-04-24T05:37:50;11.00;1.00
435;DHT22;204;48.942;9.256;2023-04-24T05:40:16;11.10;1.00
435;DHT22;204;48.942;9.256;2023-04-24T05:42:42;11.00;1.00
435;DHT22;204;48.942;9.256;2023-04-24T05:45:08;11.10;1.00
435;DHT22;204;48.942;9.256;2023-04-24T05:47:34;11.10;1.00
435;DHT22;204;48.942;9.256;2023-04-24T05:50:00;11.10;1.00
435;DHT22;204;48.942;9.256;2023-04-24T05:52:26;11.10;1.00
435;DHT22;204;48.942;9.256;2023-04-24T05:54:51;11.10;1.00
435;DHT22;204;48.942;9.256;2023-04-24T05:57:17;11.00;1.00
435;DHT22;204;48.942;9.256;2023-04-24T05:59:42;11.00;1.00
435;DHT22;204;48.942;9.256;2023-04-24T06:02:08;11.00;1.00
435;DHT22;204;48.942;9.256;2023-04-24T06:04:34;11.00;1.00
435;DHT22;204;48.942;9.256;2023-04-24T06:06:59;11.00;1.00
435;DHT22;204;48.942;9.256;2023-04-24T06:09:25;11.20;1.00
435;DHT22;204;48.942;9.256;2023-04-24T06:11:51;11.50;1.00
435;DHT22;204;48.942;9.256;2023-04-24T06:14:21;11.70;1.00
435;DHT22;204;48.942;9.256;2023-04-24T06:16:47;11.90;1.00
435;DHT22;204;48.942;9.256;2023-04-24T06:19:13;12.10;1.00
435;DHT22;204;48.942;9.256;2023-04-24T06:21:38;12.10;1.00
435;DHT22;204;48.942;9.256;2023-04-24T06:24:04;12.20;1.00
435;DHT22;204;48.942;9.256;2023-04-24T06:26:30;12.30;1.00
435;DHT22;204;48.942;9.256;2023-04-24T06:28:56;12.40;1.00
435;DHT22;204;48.942;9.256;2023-04-24T06:31:22;12.60;1.00
435;DHT22;204;48.942;9.256;2023-04-24T06:33:48;12.80;1.00
435;DHT22;204;48.942;9.256;2023-04-24T06:36:15;13.10;1.00
435;DHT22;204;48.942;9.256;2023-04-24T06:38:41;13.30;1.00
435;DHT22;204;48.942;9.256;2023-04-24T06:41:07;13.60;1.00
435;DHT22;204;48.942;9.256;2023-04-24T06:43:33;14.00;1.00
435;DHT22;204;48.942;9.256;2023-04-24T06:45:59;14.40;1.00
435;DHT22;204;48.942;9.256;2023-04-24T06:48:25;14.60;1.00
435;DHT22;204;48.942;9.256;2023-04-24T06:50:51;14.80;1.00
435;DHT22;204;48.942;9.256;2023-04-24T06:53:17;14.90;1.00
435;DHT22;204;48.942;9.256;2023-04-24T06:55:43;15.00;1.00
435;DHT22;204;48.942;9.256;2023-04-24T06:58:10;15.10;1.00
435;DHT22;204;48.942;9.256;2023-04-24T07:00:36;15.10;1.00
435;DHT22;204;48.942;9.256;2023-04-24T07:03:01;15.10;1.00
435;DHT22;204;48.942;9.256;2023-04-24T07:05:27;15.10;1.00
435;DHT22;204;48.942;9.256;2023-04-24T07:07:53;15.10;1.00
435;DHT22;204;48.942;9.256;2023-04-24T07:10:19;15.10;1.00
435;DHT22;204;48.942;9.256;2023-04-24T07:12:45;15.00;1.00
435;DHT22;204;48.942;9.256;2023-04-24T07:15:12;15.00;1.00
435;DHT22;204;48.942;9.256;2023-04-24T07:17:37;15.20;1.00
435;DHT22;204;48.942;9.256;2023-04-24T07:20:04;15.20;1.00
435;DHT22;204;48.942;9.256;2023-04-24T07:22:30;15.50;1.00
435;DHT22;204;48.942;9.256;2023-04-24T07:24:56;15.50;1.00
435;DHT22;204;48.942;9.256;2023-04-24T07:27:22;15.30;1.00
435;DHT22;204;48.942;9.256;2023-04-24T07:29:47;15.10;1.00
435;DHT22;204;48.942;9.256;2023-04-24T07:32:13;15.00;1.00
435;DHT22;204;48.942;9.256;2023-04-24T07:34:39;14.90;1.00
435;DHT22;204;48.942;9.256;2023-04-24T07:37:05;14.90;1.00
435;DHT22;204;48.942;9.256;2023-04-24T07:39:31;15.00;1.00
435;DHT22;204;48.942;9.256;2023-04-24T07:41:57;15.10;1.00
435;DHT22;204;48.942;9.256;2023-04-24T07:44:24;15.20;1.00
435;DHT22;204;48.942;9.256;2023-04-24T07:46:50;15.20;1.00
435;DHT22;204;48.942;9.256;2023-04-24T07:49:15;15.10;1.00
435;DHT22;204;48.942;9.256;2023-04-24T07:51:41;15.10;1.00
435;DHT22;204;48.942;9.256;2023-04-24T07:54:07;15.10;1.00
435;DHT22;204;48.942;9.256;2023-04-24T07:56:33;15.10;1.00
435;DHT22;204;48.942;9.256;2023-04-24T07:58:59;15.10;1.00
435;DHT22;204;48.942;9.256;2023-04-24T08:01:25;15.10;1.00
435;DHT22;204;48.942;9.256;2023-04-24T08:03:50;15.00;1.00
435;DHT22;204;48.942;9.256;2023-04-24T08:06:16;14.90;1.00
435;DHT22;204;48.942;9.256;2023-04-24T08:08:42;15.00;1.00
435;DHT22;204;48.942;9.256;2023-04-24T08:11:08;14.90;1.00
435;DHT22;204;48.942;9.256;2023-04-24T08:13:34;14.90;1.00
435;DHT22;204;48.942;9.256;2023-04-24T08:15:59;15.00;1.00
435;DHT22;204;48.942;9.256;2023-04-24T08:18:25;15.20;1.00
435;DHT22;204;48.942;9.256;2023-04-24T08:20:51;15.30;1.00
435;DHT22;204;48.942;9.256;2023-04-24T08:23:17;15.30;1.00
435;DHT22;204;48.942;9.256;2023-04-24T08:25:42;15.30;1.00
435;DHT22;204;48.942;9.256;2023-04-24T08:28:09;15.30;1.00
435;DHT22;204;48.942;9.256;2023-04-24T08:30:36;15.40;1.00
435;DHT22;204;48.942;9.256;2023-04-24T08:33:02;15.40;1.00
435;DHT22;204;48.942;9.256;2023-04-24T08:35:28;15.30;1.00
435;DHT22;204;48.942;9.256;2023-04-24T08:37:53;15.30;1.00
435;DHT22;204;48.942;9.256;2023-04-24T08:40:22;15.30;1.00
435;DHT22;204;48.942;9.256;2023-04-24T08:42:49;15.10;1.00
435;DHT22;204;48.942;9.256;2023-04-24T08:45:18;15.10;1.00
435;DHT22;204;48.942;9.256;2023-04-24T08:47:44;15.10;1.00
435;DHT22;204;48.942;9.256;2023-04-24T08:50:11;15.20;1.00
435;DHT22;204;48.942;9.256;2023-04-24T08:52:37;15.20;1.00
435;DHT22;204;48.942;9.256;2023-04-24T08:55:03;15.30;1.00
435;DHT22;204;48.942;9.256;2023-04-24T08:57:29;15.30;1.00
435;DHT22;204;48.942;9.256;2023-04-24T08:59:56;15.50;1.00
435;DHT22;204;48.942;9.256;2023-04-24T09:02:23;15.90;1.00
435;DHT22;204;48.942;9.256;2023-04-24T09:04:49;16.10;1.00
435;DHT22;204;48.942;9.256;2023-04-24T09:07:16;16.10;1.00
435;DHT22;204;48.942;9.256;2023-04-24T09:09:43;16.10;1.00
435;DHT22;204;48.942;9.256;2023-04-24T09:12:09;16.00;1.00
435;DHT22;204;48.942;9.256;2023-04-24T09:14:35;15.70;1.00
435;DHT22;204;48.942;9.256;2023-04-24T09:17:03;15.50;1.00
435;DHT22;204;48.942;9.256;2023-04-24T09:19:29;15.30;1.00
435;DHT22;204;48.942;9.256;2023-04-24T09:21:55;15.30;1.00
435;DHT22;204;48.942;9.256;2023-04-24T09:24:21;15.40;1.00
435;DHT22;204;48.942;9.256;2023-04-24T09:26:57;15.40;1.00
435;DHT22;204;48.942;9.256;2023-04-24T09:29:24;15.40;1.00
435;DHT22;204;48.942;9.256;2023-04-24T09:31:50;15.20;1.00
435;DHT22;204;48.942;9.256;2023-04-24T09:34:24;15.20;1.00
435;DHT22;204;48.942;9.256;2023-04-24T09:36:51;15.00;1.00
435;DHT22;204;48.942;9.256;2023-04-24T09:39:17;15.00;1.00
435;DHT22;204;48.942;9.256;2023-04-24T09:41:53;15.10;1.00
435;DHT22;204;48.942;9.256;2023-04-24T09:44:24;15.20;1.00
435;DHT22;204;48.942;9.256;2023-04-24T09:46:52;15.30;1.00
435;DHT22;204;48.942;9.256;2023-04-24T09:49:25;15.20;1.00
435;DHT22;204;48.942;9.256;2023-04-24T09:51:51;15.30;1.00
435;DHT22;204;48.942;9.256;2023-04-24T09:54:21;15.40;1.00
435;DHT22;204;48.942;9.256;2023-04-24T09:56:48;15.50;1.00
435;DHT22;204;48.942;9.256;2023-04-24T09:59:16;15.40;1.00
435;DHT22;204;48.942;9.256;2023-04-24T10:01:42;15.30;1.00
435;DHT22;204;48.942;9.256;2023-04-24T10:04:22;15.40;1.00
435;DHT22;204;48.942;9.256;2023-04-24T10:06:50;15.50;1.00
435;DHT22;204;48.942;9.256;2023-04-24T10:09:21;15.60;1.00
435;DHT22;204;48.942;9.256;2023-04-24T10:11:49;15.70;1.00
435;DHT22;204;48.942;9.256;2023-04-24T10:14:16;15.80;1.00
435;DHT22;204;48.942;9.256;2023-04-24T10:16:43;15.70;1.00
435;DHT22;204;48.942;9.256;2023-04-24T10:19:09;15.80;1.00
435;DHT22;204;48.942;9.256;2023-04-24T10:21:36;15.90;1.00
435;DHT22;204;48.942;9.256;2023-04-24T10:24:10;16.10;1.00
435;DHT22;204;48.942;9.256;2023-04-24T10:26:37;16.20;1.00
435;DHT22;204;48.942;9.256;2023-04-24T10:29:05;16.30;1.00
435;DHT22;204;48.942;9.256;2023-04-24T10:31:35;16.40;1.00
435;DHT22;204;48.942;9.256;2023-04-24T10:34:03;16.20;1.00
435;DHT22;204;48.942;9.256;2023-04-24T10:36:30;16.10;1.00
435;DHT22;204;48.942;9.256;2023-04-24T10:39:00;15.90;1.00
435;DHT22;204;48.942;9.256;2023-04-24T10:41:26;15.90;1.00
435;DHT22;204;48.942;9.256;2023-04-24T10:46:34;15.70;1.00
435;DHT22;204;48.942;9.256;2023-04-24T10:49:03;15.40;1.00
435;DHT22;204;48.942;9.256;2023-04-24T10:56:49;15.20;1.00
435;DHT22;204;48.942;9.256;2023-04-24T10:59:27;15.30;1.00
435;DHT22;204;48.942;9.256;2023-04-24T11:02:00;15.50;1.00
435;DHT22;204;48.942;9.256;2023-04-24T11:04:33;15.80;1.00
435;DHT22;204;48.942;9.256;2023-04-24T11:07:00;16.20;1.00
435;DHT22;204;48.942;9.256;2023-04-24T11:09:27;16.50;1.00
435;DHT22;204;48.942;9.256;2023-04-24T11:12:04;16.70;1.00
435;DHT22;204;48.942;9.256;2023-04-24T11:15:00;17.00;1.00
435;DHT22;204;48.942;9.256;2023-04-24T11:17:38;17.10;1.00
435;DHT22;204;48.942;9.256;2023-04-24T11:20:11;17.00;1.00
435;DHT22;204;48.942;9.256;2023-04-24T11:22:40;16.70;1.00
435;DHT22;204;48.942;9.256;2023-04-24T11:25:06;16.40;1.00
435;DHT22;204;48.942;9.256;2023-04-24T11:27:39;16.20;1.00
435;DHT22;204;48.942;9.256;2023-04-24T11:30:06;16.40;1.00
435;DHT22;204;48.942;9.256;2023-04-24T11:35:22;16.60;1.00
435;DHT22;204;48.942;9.256;2023-04-24T11:37:53;16.70;99.90
435;DHT22;204;48.942;9.256;2023-04-24T11:40:20;16.60;99.90
435;DHT22;204;48.942;9.256;2023-04-24T11:42:49;16.70;1.00
435;DHT22;204;48.942;9.256;2023-04-24T11:45:26;16.70;1.00
435;DHT22;204;48.942;9.256;2023-04-24T11:47:52;16.80;99.90
435;DHT22;204;48.942;9.256;2023-04-24T11:50:20;16.70;1.00
435;DHT22;204;48.942;9.256;2023-04-24T11:52:47;16.50;99.90
435;DHT22;204;48.942;9.256;2023-04-24T11:57:46;16.60;1.00
435;DHT22;204;48.942;9.256;2023-04-24T12:00:23;16.50;1.00
435;DHT22;204;48.942;9.256;2023-04-24T12:02:50;16.40;1.00
435;DHT22;204;48.942;9.256;2023-04-24T12:05:28;16.40;1.00
435;DHT22;204;48.942;9.256;2023-04-24T12:07:56;16.30;1.00
435;DHT22;204;48.942;9.256;2023-04-24T12:10:22;16.10;99.90
435;DHT22;204;48.942;9.256;2023-04-24T12:12:49;15.90;1.00
435;DHT22;204;48.942;9.256;2023-04-24T12:15:17;15.70;1.00
435;DHT22;204;48.942;9.256;2023-04-24T12:17:43;15.80;1.00
435;DHT22;204;48.942;9.256;2023-04-24T12:20:09;15.80;1.00
435;DHT22;204;48.942;9.256;2023-04-24T12:25:13;16.10;1.00
435;DHT22;204;48.942;9.256;2023-04-24T12:27:40;16.20;1.00
435;DHT22;204;48.942;9.256;2023-04-24T12:30:09;16.40;1.00
435;DHT22;204;48.942;9.256;2023-04-24T12:32:41;16.60;1.00
435;DHT22;204;48.942;9.256;2023-04-24T12:35:07;16.80;1.00
435;DHT22;204;48.942;9.256;2023-04-24T12:37:33;16.80;1.00
435;DHT22;204;48.942;9.256;2023-04-24T12:40:10;16.60;1.00
435;DHT22;204;48.942;9.256;2023-04-24T12:42:41;16.00;1.00
435;DHT22;204;48.942;9.256;2023-04-24T12:45:08;15.40;1.00
435;DHT22;204;48.942;9.256;2023-04-24T12:47:34;15.00;1.00
435;DHT22;204;48.942;9.256;2023-04-24T12:50:01;14.70;1.00
435;DHT22;204;48.942;9.256;2023-04-24T12:52:28;14.60;1.00
435;DHT22;204;48.942;9.256;2023-04-24T12:54:56;14.60;1.00
435;DHT22;204;48.942;9.256;2023-04-24T12:57:27;14.70;1.00
435;DHT22;204;48.942;9.256;2023-04-24T12:59:55;14.80;1.00
435;DHT22;204;48.942;9.256;2023-04-24T13:02:22;14.90;1.00
435;DHT22;204;48.942;9.256;2023-04-24T13:04:48;15.00;1.00
435;DHT22;204;48.942;9.256;2023-04-24T13:07:14;14.90;1.00
435;DHT22;204;48.942;9.256;2023-04-24T13:09:41;14.80;1.00
435;DHT22;204;48.942;9.256;2023-04-24T13:12:07;14.90;1.00
435;DHT22;204;48.942;9.256;2023-04-24T13:14:33;15.10;1.00
435;DHT22;204;48.942;9.256;2023-04-24T13:16:59;15.00;1.00
435;DHT22;204;48.942;9.256;2023-04-24T13:19:25;15.10;1.00
435;DHT22;204;48.942;9.256;2023-04-24T13:21:52;15.20;1.00
435;DHT22;204;48.942;9.256;2023-04-24T13:24:17;15.20;1.00
435;DHT22;204;48.942;9.256;2023-04-24T13:26:43;15.30;1.00
435;DHT22;204;48.942;9.256;2023-04-24T13:29:09;15.40;1.00
435;DHT22;204;48.942;9.256;2023-04-24T13:31:35;15.50;1.00
435;DHT22;204;48.942;9.256;2023-04-24T13:34:02;15.60;1.00
435;DHT22;204;48.942;9.256;2023-04-24T13:36:28;15.80;1.00
435;DHT22;204;48.942;9.256;2023-04-24T13:38:53;16.00;1.00
435;DHT22;204;48.942;9.256;2023-04-24T13:41:19;16.10;1.00
435;DHT22;204;48.942;9.256;2023-04-24T13:43:45;16.10;1.00
435;DHT22;204;48.942;9.256;2023-04-24T13:46:10;15.90;1.00
435;DHT22;204;48.942;9.256;2023-04-24T13:48:36;15.80;1.00
435;DHT22;204;48.942;9.256;2023-04-24T13:51:01;15.60;1.00
435;DHT22;204;48.942;9.256;2023-04-24T13:53:27;15.50;1.00
435;DHT22;204;48.942;9.256;2023-04-24T13:55:53;15.40;1.00
435;DHT22;204;48.942;9.256;2023-04-24T13:58:18;15.30;1.00
435;DHT22;204;48.942;9.256;2023-04-24T14:00:44;15.30;1.00
435;DHT22;204;48.942;9.256;2023-04-24T14:03:10;15.30;1.00
435;DHT22;204;48.942;9.256;2023-04-24T14:05:36;15.30;1.00
435;DHT22;204;48.942;9.256;2023-04-24T14:08:01;15.40;1.00
435;DHT22;204;48.942;9.256;2023-04-24T14:10:27;15.50;1.00
435;DHT22;204;48.942;9.256;2023-04-24T14:12:53;15.50;1.00
435;DHT22;204;48.942;9.256;2023-04-24T14:15:19;15.60;1.00
435;DHT22;204;48.942;9.256;2023-04-24T14:17:45;15.80;1.00
435;DHT22;204;48.942;9.256;2023-04-24T14:20:12;15.90;1.00
435;DHT22;204;48.942;9.256;2023-04-24T14:22:38;16.00;1.00
435;DHT22;204;48.942;9.256;2023-04-24T14:25:05;16.10;1.00
435;DHT22;204;48.942;9.256;2023-04-24T14:27:31;16.40;1.00
435;DHT22;204;48.942;9.256;2023-04-24T14:29:57;16.60;1.00
435;DHT22;204;48.942;9.256;2023-04-24T14:32:23;16.50;99.90
435;DHT22;204;48.942;9.256;2023-04-24T14:34:48;16.50;99.90
435;DHT22;204;48.942;9.256;2023-04-24T14:37:14;16.60;1.00
435;DHT22;204;48.942;9.256;2023-04-24T14:39:40;16.60;99.90
435;DHT22;204;48.942;9.256;2023-04-24T14:42:06;16.60;99.90
435;DHT22;204;48.942;9.256;2023-04-24T14:44:31;16.70;99.90
435;DHT22;204;48.942;9.256;2023-04-24T14:46:58;16.60;99.90
435;DHT22;204;48.942;9.256;2023-04-24T14:49:24;16.50;99.90
435;DHT22;204;48.942;9.256;2023-04-24T14:51:49;16.40;99.90
435;DHT22;204;48.942;9.256;2023-04-24T14:54:15;16.30;1.00
435;DHT22;204;48.942;9.256;2023-04-24T14:56:40;16.20;1.00
435;DHT22;204;48.942;9.256;2023-04-24T14:59:08;16.20;1.00
435;DHT22;204;48.942;9.256;2023-04-24T15:01:33;16.30;99.90
435;DHT22;204;48.942;9.256;2023-04-24T15:03:59;16.30;99.90
435;DHT22;204;48.942;9.256;2023-04-24T15:06:25;16.40;99.90
435;DHT22;204;48.942;9.256;2023-04-24T15:08:50;16.40;99.90
435;DHT22;204;48.942;9.256;2023-04-24T15:11:16;16.40;99.90
435;DHT22;204;48.942;9.256;2023-04-24T15:13:42;16.50;99.90
435;DHT22;204;48.942;9.256;2023-04-24T15:16:08;16.50;99.90
435;DHT22;204;48.942;9.256;2023-04-24T15:18:33;16.60;99.90
435;DHT22;204;48.942;9.256;2023-04-24T15:20:59;16.70;99.90
435;DHT22;204;48.942;9.256;2023-04-24T15:23:24;16.70;99.90
435;DHT22;204;48.942;9.256;2023-04-24T15:25:50;16.60;99.90
435;DHT22;204;48.942;9.256;2023-04-24T15:28:16;16.40;99.90
435;DHT22;204;48.942;9.256;2023-04-24T15:30:43;16.00;99.90
435;DHT22;204;48.942;9.256;2023-04-24T15:33:08;15.80;99.90
435;DHT22;204;48.942;9.256;2023-04-24T15:35:34;15.60;99.90
435;DHT22;204;48.942;9.256;2023-04-24T15:38:00;15.40;99.90
435;DHT22;204;48.942;9.256;2023-04-24T15:40:26;15.40;99.90
435;DHT22;204;48.942;9.256;2023-04-24T15:42:52;15.30;1.00
435;DHT22;204;48.942;9.256;2023-04-24T15:45:18;15.30;1.00
435;DHT22;204;48.942;9.256;2023-04-24T15:47:44;15.40;1.00
435;DHT22;204;48.942;9.256;2023-04-24T15:50:12;15.70;1.00
435;DHT22;204;48.942;9.256;2023-04-24T15:52:38;15.90;1.00
435;DHT22;204;48.942;9.256;2023-04-24T15:55:03;15.90;1.00
435;DHT22;204;48.942;9.256;2023-04-24T15:57:30;15.80;1.00
435;DHT22;204;48.942;9.256;2023-04-24T15:59:56;15.60;1.00
435;DHT22;204;48.942;9.256;2023-04-24T16:02:22;15.50;1.00
435;DHT22;204;48.942;9.256;2023-04-24T16:04:49;15.40;1.00
435;DHT22;204;48.942;9.256;2023-04-24T16:07:15;15.20;1.00
435;DHT22;204;48.942;9.256;2023-04-24T16:09:44;15.20;1.00
435;DHT22;204;48.942;9.256;2023-04-24T16:12:09;15.20;1.00
435;DHT22;204;48.942;9.256;2023-04-24T16:14:36;15.10;1.00
435;DHT22;204;48.942;9.256;2023-04-24T16:17:02;15.00;1.00
435;DHT22;204;48.942;9.256;2023-04-24T16:19:28;14.90;1.00
435;DHT22;204;48.942;9.256;2023-04-24T16:21:53;14.90;1.00
435;DHT22;204;48.942;9.256;2023-04-24T16:24:23;14.90;1.00
435;DHT22;204;48.942;9.256;2023-04-24T16:26:50;15.10;1.00
435;DHT22;204;48.942;9.256;2023-04-24T16:29:16;15.20;1.00
435;DHT22;204;48.942;9.256;2023-04-24T16:31:42;15.30;1.00
435;DHT22;204;48.942;9.256;2023-04-24T16:34:07;15.40;1.00
435;DHT22;204;48.942;9.256;2023-04-24T16:36:34;15.50;1.00
435;DHT22;204;48.942;9.256;2023-04-24T16:39:00;15.50;1.00
435;DHT22;204;48.942;9.256;2023-04-24T16:41:26;15.50;1.00
435;DHT22;204;48.942;9.256;2023-04-24T16:43:54;15.40;1.00
435;DHT22;204;48.942;9.256;2023-04-24T16:46:20;15.20;1.00
435;DHT22;204;48.942;9.256;2023-04-24T16:48:46;15.20;1.00
435;DHT22;204;48.942;9.256;2023-04-24T16:51:11;15.10;1.00
435;DHT22;204;48.942;9.256;2023-04-24T16:53:37;15.20;1.00
435;DHT22;204;48.942;9.256;2023-04-24T16:56:03;15.20;1.00
435;DHT22;204;48.942;9.256;2023-04-24T16:58:29;15.10;1.00
435;DHT22;204;48.942;9.256;2023-04-24T17:00:55;15.00;1.00
435;DHT22;204;48.942;9.256;2023-04-24T17:03:21;15.00;1.00